Norrskar — SGFD — position and weather

sailwx.info

Track history (hours):
 
Tides and Currents Weather Stations Pressure Air Temp Water Temp Dewpoint Dewpoint Depression Visibility Wind Speed Wind Dir Waves Ship Positions

Norrskar

Last reported at 2017-Aug-19 03:30 UTC. Time now 2017-Aug-19 03:47 UTC.
Position N 59°20' E 018°05'.

Length 35 m.

Type: Ship. MMSI: 265522430.

Date/timePositionNaut miles runAvg speedWind from/ knotsBaromVisibWave heightAir tempDewpointWater temp
2017-Aug-19 03:30N 59°20' E 018°05'0 0.0
2017-Aug-19 03:00N 59°20' E 018°05'0 0.0
2017-Aug-19 02:31N 59°20' E 018°05'0 0.0
2017-Aug-19 02:01N 59°20' E 018°05'0 0.0
2017-Aug-19 01:30N 59°20' E 018°05'0 0.0
2017-Aug-19 01:00N 59°20' E 018°05'0 0.0
2017-Aug-19 00:30N 59°20' E 018°05'0 0.0
2017-Aug-19 00:01N 59°20' E 018°05'0 0.0
2017-Aug-18 23:30N 59°20' E 018°05'0 0.0
2017-Aug-18 23:01N 59°20' E 018°05'0 0.0
2017-Aug-18 22:30N 59°20' E 018°05'0 0.0
2017-Aug-18 22:00N 59°20' E 018°05'0 0.0
2017-Aug-18 21:30N 59°20' E 018°05'0 0.0
2017-Aug-18 21:01N 59°20' E 018°05'0 0.0
2017-Aug-18 20:30N 59°20' E 018°05'0 0.0
2017-Aug-18 20:00N 59°20' E 018°05'1 2.1
2017-Aug-18 19:30N 59°19' E 018°06'5 9.3
2017-Aug-18 19:00N 59°21' E 018°15'4 8.9
2017-Aug-18 18:31N 59°24' E 018°21'2 4.1
2017-Aug-18 18:00N 59°23' E 018°25'2 3.5
2017-Aug-18 17:30N 59°24' E 018°22'3 5.0
2017-Aug-18 17:00N 59°22' E 018°18'3 6.8
2017-Aug-18 16:30N 59°20' E 018°13'4 8.4
2017-Aug-18 16:01N 59°20' E 018°05'0 0.1
2017-Aug-18 15:31N 59°20' E 018°05'3 5.9
2017-Aug-18 15:00N 59°19' E 018°10'3 6.2
2017-Aug-18 14:30N 59°22' E 018°15'6 6.3
2017-Aug-18 13:30N 59°26' E 018°24'2 0.7
2017-Aug-18 10:49N 59°25' E 018°28'2 7.1
2017-Aug-18 10:31N 59°26' E 018°24'3 6.0
2017-Aug-18 10:00N 59°23' E 018°20'5 9.6
2017-Aug-18 09:30N 59°20' E 018°13'4 8.5
2017-Aug-18 09:00N 59°20' E 018°05'0 0.1
2017-Aug-18 08:31N 59°20' E 018°05'0 0.0
2017-Aug-18 08:00N 59°20' E 018°05'0 0.0
2017-Aug-18 07:30N 59°20' E 018°05'0 0.0
2017-Aug-18 07:01N 59°20' E 018°05'0 0.0
2017-Aug-18 06:30N 59°20' E 018°05'0 0.0
2017-Aug-18 06:00N 59°20' E 018°05'0 0.0
2017-Aug-18 05:30N 59°20' E 018°05'0 0.0
2017-Aug-18 05:00N 59°20' E 018°05'0 0.0
2017-Aug-18 04:30N 59°20' E 018°05'0 0.0
2017-Aug-18 04:01N 59°20' E 018°05'0 0.0
2017-Aug-18 03:30N 59°20' E 018°05'0 0.0
2017-Aug-18 03:01N 59°20' E 018°05'0 0.0
2017-Aug-18 02:30N 59°20' E 018°05'0 0.0
2017-Aug-18 02:01N 59°20' E 018°05'0 0.0
2017-Aug-18 01:30N 59°20' E 018°05'0 0.0
2017-Aug-18 01:01N 59°20' E 018°05'0 0.0
2017-Aug-18 00:31N 59°20' E 018°05'0 0.0
2017-Aug-18 00:01N 59°20' E 018°05'0 0.0
2017-Aug-17 23:30N 59°20' E 018°05'0 0.0
2017-Aug-17 23:01N 59°20' E 018°05'0 0.0
2017-Aug-17 22:30N 59°20' E 018°05'0 0.0
2017-Aug-17 22:01N 59°20' E 018°05'0 0.0
2017-Aug-17 21:31N 59°20' E 018°05'0 0.0
2017-Aug-17 21:01N 59°20' E 018°05'0 0.0
2017-Aug-17 20:30N 59°20' E 018°05'0 0.0
2017-Aug-17 20:00N 59°20' E 018°05'2 4.4
2017-Aug-17 19:31N 59°19' E 018°09'4 7.6
2017-Aug-17 19:00N 59°22' E 018°15'4 8.5
2017-Aug-17 18:30N 59°24' E 018°21'1 2.9
2017-Aug-17 18:00N 59°23' E 018°24'1 1.5
2017-Aug-17 17:30N 59°24' E 018°23'3 5.0
2017-Aug-17 17:00N 59°22' E 018°18'3 6.8
2017-Aug-17 16:30N 59°20' E 018°13'4 8.6
2017-Aug-17 16:01N 59°20' E 018°05'0 0.1
2017-Aug-17 15:31N 59°20' E 018°05'3 5.3
2017-Aug-17 15:00N 59°19' E 018°10'3 6.8
2017-Aug-17 14:30N 59°22' E 018°15'4 8.4
2017-Aug-17 14:00N 59°24' E 018°21'2 4.2
2017-Aug-17 13:30N 59°26' E 018°24'6 9.4
2017-Aug-17 12:53N 59°24' E 018°35'2 1.4
2017-Aug-17 11:44N 59°23' E 018°37'3 4.8
2017-Aug-17 11:05N 59°25' E 018°32'110.2
2017-Aug-17 10:57N 59°25' E 018°30'4 8.0
2017-Aug-17 10:29N 59°26' E 018°23'3 5.7
2017-Aug-17 10:01N 59°23' E 018°20'5 9.5
2017-Aug-17 09:30N 59°20' E 018°13'4 8.6
2017-Aug-17 09:00N 59°20' E 018°05'0 0.1
2017-Aug-17 08:31N 59°20' E 018°05'0 0.0
2017-Aug-17 08:01N 59°20' E 018°05'0 0.0
2017-Aug-17 07:31N 59°20' E 018°05'0 0.0
2017-Aug-17 06:59N 59°20' E 018°05'0 0.0
2017-Aug-17 06:30N 59°20' E 018°05'0 0.0
2017-Aug-17 06:00N 59°20' E 018°05'0 0.0
2017-Aug-17 05:30N 59°20' E 018°05'0 0.0
2017-Aug-17 05:01N 59°20' E 018°05'0 0.0
2017-Aug-17 04:30N 59°20' E 018°05'0 0.0
2017-Aug-17 04:01N 59°20' E 018°05'0 0.0
2017-Aug-17 03:31N 59°20' E 018°05'0 0.0
2017-Aug-17 03:00N 59°20' E 018°05'0 0.0
2017-Aug-17 02:30N 59°20' E 018°05'0 0.0
2017-Aug-17 02:00N 59°20' E 018°05'0 0.0
2017-Aug-17 01:31N 59°20' E 018°05'0 0.0
2017-Aug-17 01:01N 59°20' E 018°05'0 0.0
2017-Aug-17 00:31N 59°20' E 018°05'0 0.0
2017-Aug-17 00:00N 59°20' E 018°05'0 0.0
2017-Aug-16 23:30N 59°20' E 018°05'0 0.0
2017-Aug-16 23:00N 59°20' E 018°05'0 0.0
2017-Aug-16 22:30N 59°20' E 018°05'0 0.0
2017-Aug-16 22:00N 59°20' E 018°05'0 0.0
2017-Aug-16 21:31N 59°20' E 018°05'0 0.0
2017-Aug-16 21:00N 59°20' E 018°05'0 0.0
2017-Aug-16 20:31N 59°20' E 018°05'0 0.0
2017-Aug-16 20:01N 59°20' E 018°05'1 2.8
2017-Aug-16 19:30N 59°19' E 018°07'5 9.3
2017-Aug-16 19:00N 59°22' E 018°15'4 8.2
2017-Aug-16 18:31N 59°24' E 018°21'1 3.0
2017-Aug-16 18:00N 59°23' E 018°24'1 1.7
2017-Aug-16 17:30N 59°24' E 018°22'2 3.5
2017-Aug-16 17:00N 59°23' E 018°20'4 8.3
2017-Aug-16 16:30N 59°20' E 018°13'4 8.7
2017-Aug-16 16:01N 59°20' E 018°05'0 0.2
2017-Aug-16 15:30N 59°20' E 018°05'3 5.1
2017-Aug-16 15:00N 59°19' E 018°10'4 7.1
2017-Aug-16 14:30N 59°22' E 018°15'4 8.2
2017-Aug-16 14:00N 59°24' E 018°21'2 4.1
2017-Aug-16 13:29N 59°26' E 018°24'2 0.8
2017-Aug-16 10:46N 59°25' E 018°28'2 7.3
2017-Aug-16 10:31N 59°26' E 018°24'3 6.3
2017-Aug-16 10:00N 59°23' E 018°20'5 9.5
2017-Aug-16 09:30N 59°20' E 018°13'4 8.5
2017-Aug-16 09:01N 59°20' E 018°05'0 0.1
2017-Aug-16 08:30N 59°20' E 018°05'0 0.0
2017-Aug-16 08:00N 59°20' E 018°05'0 0.0
2017-Aug-16 07:30N 59°20' E 018°05'0 0.0
2017-Aug-16 07:00N 59°20' E 018°05'0 0.0
2017-Aug-16 06:30N 59°20' E 018°05'0 0.0
2017-Aug-16 06:01N 59°20' E 018°05'0 0.0
2017-Aug-16 05:30N 59°20' E 018°05'0 0.0
2017-Aug-16 05:00N 59°20' E 018°05'0 0.0
2017-Aug-16 04:30N 59°20' E 018°05'0 0.0
2017-Aug-16 04:01N 59°20' E 018°05'0 0.0
2017-Aug-16 03:30N 59°20' E 018°05'0 0.0
2017-Aug-16 03:01N 59°20' E 018°05'0 0.0
2017-Aug-16 02:30N 59°20' E 018°05'0 0.0
2017-Aug-16 02:00N 59°20' E 018°05'0 0.0
2017-Aug-16 01:30N 59°20' E 018°05'0 0.0
2017-Aug-16 01:00N 59°20' E 018°05'0 0.0
2017-Aug-16 00:31N 59°20' E 018°05'0 0.0
2017-Aug-16 00:01N 59°20' E 018°05'0 0.0
2017-Aug-15 23:30N 59°20' E 018°05'0 0.0
2017-Aug-15 23:00N 59°20' E 018°05'0 0.0
2017-Aug-15 22:30N 59°20' E 018°05'0 0.0
2017-Aug-15 22:01N 59°20' E 018°05'0 0.0
2017-Aug-15 21:30N 59°20' E 018°05'0 0.0
2017-Aug-15 21:00N 59°20' E 018°05'0 0.0
2017-Aug-15 20:30N 59°20' E 018°05'0 0.0
2017-Aug-15 20:00N 59°20' E 018°05'3 5.2
2017-Aug-15 19:31N 59°19' E 018°10'4 7.2
2017-Aug-15 19:01N 59°22' E 018°15'4 8.1
2017-Aug-15 18:30N 59°24' E 018°21'1 3.0
2017-Aug-15 18:01N 59°23' E 018°24'1 2.1
2017-Aug-15 17:30N 59°24' E 018°22'3 5.1
2017-Aug-15 17:00N 59°22' E 018°18'3 7.0
2017-Aug-15 16:30N 59°20' E 018°13'4 8.4
2017-Aug-15 16:01N 59°20' E 018°05'0 0.1
2017-Aug-15 15:30N 59°20' E 018°05'3 5.8
2017-Aug-15 15:00N 59°20' E 018°10'3 6.9
2017-Aug-15 14:30N 59°22' E 018°15'4 7.7
2017-Aug-15 14:00N 59°24' E 018°21'2 4.2
2017-Aug-15 13:30N 59°26' E 018°24'8 4.2
2017-Aug-15 11:42N 59°23' E 018°38'6 6.7
2017-Aug-15 10:51N 59°25' E 018°28'3 7.2
2017-Aug-15 10:29N 59°26' E 018°23'3 6.0
2017-Aug-15 10:01N 59°23' E 018°20'5 9.5
2017-Aug-15 09:30N 59°20' E 018°13'4 8.5
2017-Aug-15 09:01N 59°20' E 018°05'0 0.0
2017-Aug-15 08:30N 59°20' E 018°05'0 0.0
2017-Aug-15 08:01N 59°20' E 018°05'0 0.0
2017-Aug-15 07:29N 59°20' E 018°05'0 0.0
2017-Aug-15 07:01N 59°20' E 018°05'0 0.0
2017-Aug-15 06:30N 59°20' E 018°05'0 0.0
2017-Aug-15 06:00N 59°20' E 018°05'0 0.0
2017-Aug-15 05:30N 59°20' E 018°05'0 0.0
2017-Aug-15 05:00N 59°20' E 018°05'0 0.0
2017-Aug-15 04:30N 59°20' E 018°05'0 0.0
2017-Aug-15 04:00N 59°20' E 018°05'0 0.0
2017-Aug-15 03:31N 59°20' E 018°05'0 0.0
2017-Aug-15 03:01N 59°20' E 018°05'0 0.0
2017-Aug-15 02:30N 59°20' E 018°05'0 0.0
2017-Aug-15 02:01N 59°20' E 018°05'0 0.0
2017-Aug-15 01:30N 59°20' E 018°05'0 0.0
2017-Aug-15 01:01N 59°20' E 018°05'0 0.0
2017-Aug-15 00:30N 59°20' E 018°05'0 0.0
2017-Aug-15 00:00N 59°20' E 018°05'0 0.0
2017-Aug-14 23:31N 59°20' E 018°05'0 0.0
2017-Aug-14 23:00N 59°20' E 018°05'0 0.0
2017-Aug-14 22:31N 59°20' E 018°05'0 0.0
2017-Aug-14 22:00N 59°20' E 018°05'0 0.0
2017-Aug-14 21:30N 59°20' E 018°05'0 0.0
2017-Aug-14 21:01N 59°20' E 018°05'0 0.0
2017-Aug-14 20:31N 59°20' E 018°05'0 0.0
2017-Aug-14 20:01N 59°20' E 018°05'3 5.2
2017-Aug-14 19:30N 59°19' E 018°10'3 6.4
2017-Aug-14 19:00N 59°21' E 018°14'4 8.9
2017-Aug-14 18:31N 59°24' E 018°21'1 2.9
2017-Aug-14 18:01N 59°23' E 018°24'1 1.6
2017-Aug-14 17:31N 59°24' E 018°22'2 4.6
2017-Aug-14 17:00N 59°23' E 018°19'4 7.4
2017-Aug-14 16:30N 59°20' E 018°13'4 8.5
2017-Aug-14 16:01N 59°20' E 018°05'0 0.1
2017-Aug-14 15:31N 59°20' E 018°05'3 5.3
2017-Aug-14 15:00N 59°19' E 018°10'4 6.9
2017-Aug-14 14:30N 59°22' E 018°15'4 8.2
2017-Aug-14 14:00N 59°24' E 018°21'2 4.5
2017-Aug-14 13:31N 59°26' E 018°25'5 8.2
2017-Aug-14 12:57N 59°24' E 018°33'3 2.1
2017-Aug-14 11:42N 59°23' E 018°38'5 6.0
2017-Aug-14 10:48N 59°25' E 018°28'3 8.6
2017-Aug-14 10:29N 59°26' E 018°23'3 5.7
2017-Aug-14 10:01N 59°23' E 018°20'5 9.7
2017-Aug-14 09:31N 59°20' E 018°13'4 8.4
2017-Aug-14 09:01N 59°20' E 018°05'0 0.0
2017-Aug-14 08:30N 59°20' E 018°05'0 0.0
2017-Aug-14 08:00N 59°20' E 018°05'0 0.0
2017-Aug-14 07:30N 59°20' E 018°05'0 0.0
2017-Aug-14 07:00N 59°20' E 018°05'0 0.0
2017-Aug-14 06:31N 59°20' E 018°05'0 0.0
2017-Aug-14 06:01N 59°20' E 018°05'0 0.0
2017-Aug-14 05:30N 59°20' E 018°05'0 0.0
2017-Aug-14 05:00N 59°20' E 018°05'0 0.0
2017-Aug-14 04:30N 59°20' E 018°05'0 0.0
2017-Aug-14 04:01N 59°20' E 018°05'0 0.0
2017-Aug-14 03:30N 59°20' E 018°05'0 0.0
2017-Aug-14 03:00N 59°20' E 018°05'0 0.0
2017-Aug-14 02:30N 59°20' E 018°05'0 0.0
2017-Aug-14 02:01N 59°20' E 018°05'0 0.0
2017-Aug-14 01:31N 59°20' E 018°05'0 0.0
2017-Aug-14 01:00N 59°20' E 018°05'0 0.0
2017-Aug-14 00:30N 59°20' E 018°05'0 0.0
2017-Aug-14 00:00N 59°20' E 018°05'0 0.0
2017-Aug-13 23:31N 59°20' E 018°05'0 0.0
2017-Aug-13 23:01N 59°20' E 018°05'0 0.0
2017-Aug-13 22:30N 59°20' E 018°05'0 0.0
2017-Aug-13 22:00N 59°20' E 018°05'0 0.0
2017-Aug-13 21:31N 59°20' E 018°05'0 0.0
2017-Aug-13 21:00N 59°20' E 018°05'0 0.0
2017-Aug-13 20:30N 59°20' E 018°05'0 0.0
2017-Aug-13 20:00N 59°20' E 018°05'0 0.0
2017-Aug-13 19:30N 59°20' E 018°05'0 0.0
2017-Aug-13 19:01N 59°20' E 018°05'0 0.0
2017-Aug-13 18:30N 59°20' E 018°05'0 0.0
2017-Aug-13 18:00N 59°20' E 018°05'2 3.9
2017-Aug-13 17:31N 59°19' E 018°08'4 8.0
2017-Aug-13 17:01N 59°22' E 018°15'4 8.3
2017-Aug-13 16:30N 59°24' E 018°21'3 5.4
2017-Aug-13 16:00N 59°26' E 018°26'1 0.2
2017-Aug-13 10:18N 59°25' E 018°28'3 9.9
2017-Aug-13 10:00N 59°26' E 018°22'3 6.3
2017-Aug-13 09:31N 59°23' E 018°19'4 8.2
2017-Aug-13 09:00N 59°20' E 018°13'4 8.4
2017-Aug-13 08:31N 59°20' E 018°05'0 0.1
2017-Aug-13 08:00N 59°20' E 018°05'0 0.0
2017-Aug-13 07:30N 59°20' E 018°05'0 0.0
2017-Aug-13 07:01N 59°20' E 018°05'0 0.0
2017-Aug-13 06:31N 59°20' E 018°05'0 0.0
2017-Aug-13 06:00N 59°20' E 018°05'0 0.0
2017-Aug-13 05:31N 59°20' E 018°05'0 0.0
2017-Aug-13 05:01N 59°20' E 018°05'0 0.0
2017-Aug-13 04:30N 59°20' E 018°05'0 0.0
2017-Aug-13 04:01N 59°20' E 018°05'0 0.0
2017-Aug-13 03:31N 59°20' E 018°05'0 0.0
2017-Aug-13 03:00N 59°20' E 018°05'0 0.0
2017-Aug-13 02:31N 59°20' E 018°05'0 0.0
2017-Aug-13 02:01N 59°20' E 018°05'0 0.0
2017-Aug-13 01:31N 59°20' E 018°05'0 0.0
2017-Aug-13 01:01N 59°20' E 018°05'0 0.0
2017-Aug-13 00:31N 59°20' E 018°05'0 0.0
2017-Aug-13 00:01N 59°20' E 018°05'0 0.0
2017-Aug-12 23:31N 59°20' E 018°05'0 0.0
2017-Aug-12 23:00N 59°20' E 018°05'0 0.0
2017-Aug-12 22:31N 59°20' E 018°05'0 0.0
2017-Aug-12 22:01N 59°20' E 018°05'0 0.0
2017-Aug-12 21:31N 59°20' E 018°05'0 0.0
2017-Aug-12 21:01N 59°20' E 018°05'0 0.0
2017-Aug-12 20:30N 59°20' E 018°05'0 0.0
2017-Aug-12 20:01N 59°20' E 018°05'0 0.0
2017-Aug-12 19:31N 59°20' E 018°05'0 0.0
2017-Aug-12 19:01N 59°20' E 018°05'0 0.0
2017-Aug-12 18:31N 59°20' E 018°05'0 0.0
2017-Aug-12 18:01N 59°20' E 018°05'2 3.1
2017-Aug-12 17:30N 59°19' E 018°07'4 8.7
2017-Aug-12 17:00N 59°21' E 018°15'4 8.8
2017-Aug-12 16:31N 59°24' E 018°21'3 5.4
2017-Aug-12 15:59N 59°26' E 018°26'4 8.2
2017-Aug-12 15:30N 59°24' E 018°34'5 9.4
2017-Aug-12 15:00N 59°22' E 018°42'4 8.4
2017-Aug-12 14:30N 59°19' E 018°48'4 8.4
2017-Aug-12 14:00N 59°17' E 018°55'0 0.0
2017-Aug-12 13:30N 59°17' E 018°55'0 0.0
2017-Aug-12 13:00N 59°17' E 018°55'0 0.0
2017-Aug-12 12:30N 59°17' E 018°55'1 2.5
2017-Aug-12 12:00N 59°18' E 018°53'5 9.7
2017-Aug-12 11:31N 59°21' E 018°46'4 7.1
2017-Aug-12 10:53N 59°23' E 018°38'410.0
2017-Aug-12 10:29N 59°25' E 018°31'5 9.7
2017-Aug-12 10:00N 59°25' E 018°22'3 6.2
2017-Aug-12 09:30N 59°23' E 018°19'4 8.2
2017-Aug-12 09:00N 59°20' E 018°12'4 8.2
2017-Aug-12 08:30N 59°20' E 018°05'0 0.0
2017-Aug-12 08:01N 59°20' E 018°05'0 0.0
2017-Aug-12 07:31N 59°20' E 018°05'0 0.0
2017-Aug-12 07:01N 59°20' E 018°05'0 0.0
2017-Aug-12 06:30N 59°20' E 018°05'0 0.0
2017-Aug-12 06:01N 59°20' E 018°05'0 0.0
2017-Aug-12 05:31N 59°20' E 018°05'0 0.0
2017-Aug-12 05:01N 59°20' E 018°05'0 0.0
2017-Aug-12 04:31N 59°20' E 018°05'0 0.0
2017-Aug-12 04:01N 59°20' E 018°05'0 0.0
2017-Aug-12 03:31N 59°20' E 018°05'0 0.0
2017-Aug-12 03:01N 59°20' E 018°05'0 0.0
2017-Aug-12 02:31N 59°20' E 018°05'0 0.0
2017-Aug-12 02:01N 59°20' E 018°05'0 0.0
2017-Aug-12 01:31N 59°20' E 018°05'0 0.0
2017-Aug-12 01:00N 59°20' E 018°05'0 0.0
2017-Aug-12 00:31N 59°20' E 018°05'0 0.0
2017-Aug-12 00:01N 59°20' E 018°05'0 0.0
2017-Aug-11 23:31N 59°20' E 018°05'0 0.0
2017-Aug-11 23:00N 59°20' E 018°05'0 0.0
2017-Aug-11 22:30N 59°20' E 018°05'0 0.0
2017-Aug-11 22:00N 59°20' E 018°05'0 0.0
2017-Aug-11 21:31N 59°20' E 018°05'0 0.0
2017-Aug-11 21:01N 59°20' E 018°05'0 0.0
2017-Aug-11 20:31N 59°20' E 018°05'1 2.5
2017-Aug-11 20:00N 59°19' E 018°07'5 9.0
2017-Aug-11 19:30N 59°21' E 018°14'4 8.9
2017-Aug-11 19:01N 59°24' E 018°21'2 3.4
2017-Aug-11 18:30N 59°23' E 018°24'2 4.1
2017-Aug-11 18:00N 59°23' E 018°20'3 6.3
2017-Aug-11 17:30N 59°22' E 018°15'3 6.4
2017-Aug-11 17:00N 59°19' E 018°11'3 6.1
2017-Aug-11 16:31N 59°20' E 018°05'4 7.1
2017-Aug-11 16:00N 59°20' E 018°12'2 4.7
2017-Aug-11 15:30N 59°22' E 018°15'4 8.1
2017-Aug-11 15:00N 59°24' E 018°21'1 3.0
2017-Aug-11 14:30N 59°25' E 018°22'9 3.5
2017-Aug-11 12:01N 59°23' E 018°38'010.7
2017-Aug-11 12:00N 59°23' E 018°38'6 5.3
2017-Aug-11 10:56N 59°26' E 018°28'3 6.9
2017-Aug-11 10:30N 59°25' E 018°22'3 5.2
2017-Aug-11 10:00N 59°23' E 018°20'5 9.7
2017-Aug-11 09:30N 59°20' E 018°12'4 8.0
2017-Aug-11 09:00N 59°20' E 018°05'0 0.0
2017-Aug-11 08:31N 59°20' E 018°05'0 0.0
2017-Aug-11 08:00N 59°20' E 018°05'0 0.0
2017-Aug-11 07:30N 59°20' E 018°05'0 0.0
2017-Aug-11 07:00N 59°20' E 018°05'0 0.0
2017-Aug-11 06:30N 59°20' E 018°05'0 0.0
2017-Aug-11 06:00N 59°20' E 018°05'0 0.0
2017-Aug-11 05:30N 59°20' E 018°05'0 0.0
2017-Aug-11 05:00N 59°20' E 018°05'0 0.0
2017-Aug-11 04:30N 59°20' E 018°05'0 0.0
2017-Aug-11 04:00N 59°20' E 018°05'0 0.0
2017-Aug-11 03:30N 59°20' E 018°05'0 0.0
2017-Aug-11 03:00N 59°20' E 018°05'0 0.0
2017-Aug-11 02:30N 59°20' E 018°05'0 0.0
2017-Aug-11 02:00N 59°20' E 018°05'0 0.0
2017-Aug-11 01:30N 59°20' E 018°05'0 0.0
2017-Aug-11 01:00N 59°20' E 018°05'0 0.0
2017-Aug-11 00:30N 59°20' E 018°05'0 0.0
2017-Aug-11 00:00N 59°20' E 018°05'0 0.0
2017-Aug-10 23:30N 59°20' E 018°05'0 0.0
2017-Aug-10 23:00N 59°20' E 018°05'0 0.0
2017-Aug-10 22:30N 59°20' E 018°05'0 0.0
2017-Aug-10 22:00N 59°20' E 018°05'0 0.0
2017-Aug-10 21:30N 59°20' E 018°05'0 0.0
2017-Aug-10 21:00N 59°20' E 018°05'0 0.0
2017-Aug-10 20:30N 59°20' E 018°05'0 0.0
2017-Aug-10 20:01N 59°20' E 018°05'4 8.0
2017-Aug-10 19:30N 59°20' E 018°12'3 5.8
2017-Aug-10 19:00N 59°22' E 018°17'3 6.2
2017-Aug-10 18:30N 59°24' E 018°21'1 1.9
2017-Aug-10 17:44N 59°23' E 018°24'1 4.9
2017-Aug-10 17:30N 59°24' E 018°22'2 4.1
2017-Aug-10 17:01N 59°23' E 018°19'4 7.5
2017-Aug-10 16:30N 59°20' E 018°13'4 8.6
2017-Aug-10 16:01N 59°20' E 018°05'0 0.1
2017-Aug-10 15:30N 59°20' E 018°05'4 7.6
2017-Aug-10 15:00N 59°20' E 018°12'3 5.7
2017-Aug-10 14:30N 59°22' E 018°16'3 6.8
2017-Aug-10 14:00N 59°24' E 018°21'4 1.2
2017-Aug-10 10:56N 59°25' E 018°28'3 7.0
2017-Aug-10 10:30N 59°25' E 018°22'3 5.5
2017-Aug-10 10:01N 59°23' E 018°20'5 9.6
2017-Aug-10 09:30N 59°20' E 018°12'4 8.0
2017-Aug-10 09:01N 59°20' E 018°05'0 0.0
2017-Aug-10 08:30N 59°20' E 018°05'0 0.0
2017-Aug-10 08:00N 59°20' E 018°05'0 0.0
2017-Aug-10 07:30N 59°20' E 018°05'0 0.0
2017-Aug-10 07:00N 59°20' E 018°05'0 0.0
2017-Aug-10 06:30N 59°20' E 018°05'0 0.0
2017-Aug-10 06:00N 59°20' E 018°05'0 0.0
2017-Aug-10 05:30N 59°20' E 018°05'0 0.0
2017-Aug-10 05:00N 59°20' E 018°05'0 0.0
2017-Aug-10 04:30N 59°20' E 018°05'0 0.0
2017-Aug-10 04:00N 59°20' E 018°05'0 0.0
2017-Aug-10 03:30N 59°20' E 018°05'0 0.0
2017-Aug-10 03:00N 59°20' E 018°05'0 0.0
2017-Aug-10 02:30N 59°20' E 018°05'0 0.0
2017-Aug-10 02:00N 59°20' E 018°05'0 0.0
2017-Aug-10 01:30N 59°20' E 018°05'0 0.0
2017-Aug-10 01:00N 59°20' E 018°05'0 0.0
2017-Aug-10 00:30N 59°20' E 018°05'0 0.0
2017-Aug-10 00:00N 59°20' E 018°05'0 0.0
2017-Aug-09 23:30N 59°20' E 018°05'0 0.0
2017-Aug-09 23:00N 59°20' E 018°05'0 0.0
2017-Aug-09 22:30N 59°20' E 018°05'0 0.0
2017-Aug-09 22:00N 59°20' E 018°05'0 0.0
2017-Aug-09 21:30N 59°20' E 018°05'0 0.0
2017-Aug-09 21:00N 59°20' E 018°05'0 0.0
2017-Aug-09 20:30N 59°20' E 018°05'0 0.0
2017-Aug-09 20:00N 59°20' E 018°05'2 4.1
2017-Aug-09 19:30N 59°19' E 018°09'4 8.7
2017-Aug-09 19:00N 59°22' E 018°15'4 7.7
2017-Aug-09 18:31N 59°24' E 018°21'1 1.8
2017-Aug-09 17:43N 59°23' E 018°24'1 4.7
2017-Aug-09 17:31N 59°24' E 018°22'2 4.5
2017-Aug-09 17:00N 59°23' E 018°18'4 7.9
2017-Aug-09 16:30N 59°20' E 018°12'4 8.1
2017-Aug-09 16:00N 59°20' E 018°05'0 0.1
2017-Aug-09 15:30N 59°20' E 018°05'3 6.5
2017-Aug-09 15:00N 59°20' E 018°11'3 6.5
2017-Aug-09 14:30N 59°22' E 018°16'4 7.0
2017-Aug-09 13:59N 59°24' E 018°21'2 4.7
2017-Aug-09 13:30N 59°26' E 018°25'5 8.7
2017-Aug-09 12:57N 59°24' E 018°34'2 5.5
2017-Aug-09 12:30N 59°23' E 018°38'0 0.3
2017-Aug-09 12:00N 59°23' E 018°38'2 3.2
2017-Aug-09 11:30N 59°23' E 018°35'3 6.8
2017-Aug-09 11:00N 59°25' E 018°29'4 7.2
2017-Aug-09 10:31N 59°26' E 018°22'3 5.6
2017-Aug-09 10:00N 59°23' E 018°20'5 9.5
2017-Aug-09 09:30N 59°20' E 018°13'4 8.3
2017-Aug-09 09:01N 59°20' E 018°05'0 0.1
2017-Aug-09 08:30N 59°20' E 018°05'0 0.0
2017-Aug-09 08:00N 59°20' E 018°05'0 0.0
2017-Aug-09 07:30N 59°20' E 018°05'0 0.0
2017-Aug-09 07:00N 59°20' E 018°05'0 0.0
2017-Aug-09 06:30N 59°20' E 018°05'0 0.0
2017-Aug-09 06:00N 59°20' E 018°05'0 0.0
2017-Aug-09 05:30N 59°20' E 018°05'0 0.0
2017-Aug-09 05:00N 59°20' E 018°05'0 0.0
2017-Aug-09 04:30N 59°20' E 018°05'0 0.0
2017-Aug-09 04:00N 59°20' E 018°05'0 0.0
2017-Aug-09 03:30N 59°20' E 018°05'  
Track history (hours):
 
Tides and Currents Weather Stations Pressure Air Temp Water Temp Dewpoint Dewpoint Depression Visibility Wind Speed Wind Dir Waves Ship Positions

Norrskar

Last reported at 2017-Aug-19 03:30 UTC. Time now 2017-Aug-19 03:47 UTC.
Position N 59°20' E 018°05'.

Length 35 m.

Type: Ship. MMSI: 265522430.

Date/timePositionNaut miles runAvg speedWind from/ knotsBaromVisibWave heightAir tempDewpointWater temp
2017-Aug-19 03:30N 59°20' E 018°05'0 0.0
2017-Aug-19 03:00N 59°20' E 018°05'0 0.0
2017-Aug-19 02:31N 59°20' E 018°05'0 0.0
2017-Aug-19 02:01N 59°20' E 018°05'0 0.0
2017-Aug-19 01:30N 59°20' E 018°05'0 0.0
2017-Aug-19 01:00N 59°20' E 018°05'0 0.0
2017-Aug-19 00:30N 59°20' E 018°05'0 0.0
2017-Aug-19 00:01N 59°20' E 018°05'0 0.0
2017-Aug-18 23:30N 59°20' E 018°05'0 0.0
2017-Aug-18 23:01N 59°20' E 018°05'0 0.0
2017-Aug-18 22:30N 59°20' E 018°05'0 0.0
2017-Aug-18 22:00N 59°20' E 018°05'0 0.0
2017-Aug-18 21:30N 59°20' E 018°05'0 0.0
2017-Aug-18 21:01N 59°20' E 018°05'0 0.0
2017-Aug-18 20:30N 59°20' E 018°05'0 0.0
2017-Aug-18 20:00N 59°20' E 018°05'1 2.1
2017-Aug-18 19:30N 59°19' E 018°06'5 9.3
2017-Aug-18 19:00N 59°21' E 018°15'4 8.9
2017-Aug-18 18:31N 59°24' E 018°21'2 4.1
2017-Aug-18 18:00N 59°23' E 018°25'2 3.5
2017-Aug-18 17:30N 59°24' E 018°22'3 5.0
2017-Aug-18 17:00N 59°22' E 018°18'3 6.8
2017-Aug-18 16:30N 59°20' E 018°13'4 8.4
2017-Aug-18 16:01N 59°20' E 018°05'0 0.1
2017-Aug-18 15:31N 59°20' E 018°05'3 5.9
2017-Aug-18 15:00N 59°19' E 018°10'3 6.2
2017-Aug-18 14:30N 59°22' E 018°15'6 6.3
2017-Aug-18 13:30N 59°26' E 018°24'2 0.7
2017-Aug-18 10:49N 59°25' E 018°28'2 7.1
2017-Aug-18 10:31N 59°26' E 018°24'3 6.0
2017-Aug-18 10:00N 59°23' E 018°20'5 9.6
2017-Aug-18 09:30N 59°20' E 018°13'4 8.5
2017-Aug-18 09:00N 59°20' E 018°05'0 0.1
2017-Aug-18 08:31N 59°20' E 018°05'0 0.0
2017-Aug-18 08:00N 59°20' E 018°05'0 0.0
2017-Aug-18 07:30N 59°20' E 018°05'0 0.0
2017-Aug-18 07:01N 59°20' E 018°05'0 0.0
2017-Aug-18 06:30N 59°20' E 018°05'0 0.0
2017-Aug-18 06:00N 59°20' E 018°05'0 0.0
2017-Aug-18 05:30N 59°20' E 018°05'0 0.0
2017-Aug-18 05:00N 59°20' E 018°05'0 0.0
2017-Aug-18 04:30N 59°20' E 018°05'0 0.0
2017-Aug-18 04:01N 59°20' E 018°05'0 0.0
2017-Aug-18 03:30N 59°20' E 018°05'0 0.0
2017-Aug-18 03:01N 59°20' E 018°05'0 0.0
2017-Aug-18 02:30N 59°20' E 018°05'0 0.0
2017-Aug-18 02:01N 59°20' E 018°05'0 0.0
2017-Aug-18 01:30N 59°20' E 018°05'0 0.0
2017-Aug-18 01:01N 59°20' E 018°05'0 0.0
2017-Aug-18 00:31N 59°20' E 018°05'0 0.0
2017-Aug-18 00:01N 59°20' E 018°05'0 0.0
2017-Aug-17 23:30N 59°20' E 018°05'0 0.0
2017-Aug-17 23:01N 59°20' E 018°05'0 0.0
2017-Aug-17 22:30N 59°20' E 018°05'0 0.0
2017-Aug-17 22:01N 59°20' E 018°05'0 0.0
2017-Aug-17 21:31N 59°20' E 018°05'0 0.0
2017-Aug-17 21:01N 59°20' E 018°05'0 0.0
2017-Aug-17 20:30N 59°20' E 018°05'0 0.0
2017-Aug-17 20:00N 59°20' E 018°05'2 4.4
2017-Aug-17 19:31N 59°19' E 018°09'4 7.6
2017-Aug-17 19:00N 59°22' E 018°15'4 8.5
2017-Aug-17 18:30N 59°24' E 018°21'1 2.9
2017-Aug-17 18:00N 59°23' E 018°24'1 1.5
2017-Aug-17 17:30N 59°24' E 018°23'3 5.0
2017-Aug-17 17:00N 59°22' E 018°18'3 6.8
2017-Aug-17 16:30N 59°20' E 018°13'4 8.6
2017-Aug-17 16:01N 59°20' E 018°05'0 0.1
2017-Aug-17 15:31N 59°20' E 018°05'3 5.3
2017-Aug-17 15:00N 59°19' E 018°10'3 6.8
2017-Aug-17 14:30N 59°22' E 018°15'4 8.4
2017-Aug-17 14:00N 59°24' E 018°21'2 4.2
2017-Aug-17 13:30N 59°26' E 018°24'6 9.4
2017-Aug-17 12:53N 59°24' E 018°35'2 1.4
2017-Aug-17 11:44N 59°23' E 018°37'3 4.8
2017-Aug-17 11:05N 59°25' E 018°32'110.2
2017-Aug-17 10:57N 59°25' E 018°30'4 8.0
2017-Aug-17 10:29N 59°26' E 018°23'3 5.7
2017-Aug-17 10:01N 59°23' E 018°20'5 9.5
2017-Aug-17 09:30N 59°20' E 018°13'4 8.6
2017-Aug-17 09:00N 59°20' E 018°05'0 0.1
2017-Aug-17 08:31N 59°20' E 018°05'0 0.0
2017-Aug-17 08:01N 59°20' E 018°05'0 0.0
2017-Aug-17 07:31N 59°20' E 018°05'0 0.0
2017-Aug-17 06:59N 59°20' E 018°05'0 0.0
2017-Aug-17 06:30N 59°20' E 018°05'0 0.0
2017-Aug-17 06:00N 59°20' E 018°05'0 0.0
2017-Aug-17 05:30N 59°20' E 018°05'0 0.0
2017-Aug-17 05:01N 59°20' E 018°05'0 0.0
2017-Aug-17 04:30N 59°20' E 018°05'0 0.0
2017-Aug-17 04:01N 59°20' E 018°05'0 0.0
2017-Aug-17 03:31N 59°20' E 018°05'0 0.0
2017-Aug-17 03:00N 59°20' E 018°05'0 0.0
2017-Aug-17 02:30N 59°20' E 018°05'0 0.0
2017-Aug-17 02:00N 59°20' E 018°05'0 0.0
2017-Aug-17 01:31N 59°20' E 018°05'0 0.0
2017-Aug-17 01:01N 59°20' E 018°05'0 0.0
2017-Aug-17 00:31N 59°20' E 018°05'0 0.0
2017-Aug-17 00:00N 59°20' E 018°05'0 0.0
2017-Aug-16 23:30N 59°20' E 018°05'0 0.0
2017-Aug-16 23:00N 59°20' E 018°05'0 0.0
2017-Aug-16 22:30N 59°20' E 018°05'0 0.0
2017-Aug-16 22:00N 59°20' E 018°05'0 0.0
2017-Aug-16 21:31N 59°20' E 018°05'0 0.0
2017-Aug-16 21:00N 59°20' E 018°05'0 0.0
2017-Aug-16 20:31N 59°20' E 018°05'0 0.0
2017-Aug-16 20:01N 59°20' E 018°05'1 2.8
2017-Aug-16 19:30N 59°19' E 018°07'5 9.3
2017-Aug-16 19:00N 59°22' E 018°15'4 8.2
2017-Aug-16 18:31N 59°24' E 018°21'1 3.0
2017-Aug-16 18:00N 59°23' E 018°24'1 1.7
2017-Aug-16 17:30N 59°24' E 018°22'2 3.5
2017-Aug-16 17:00N 59°23' E 018°20'4 8.3
2017-Aug-16 16:30N 59°20' E 018°13'4 8.7
2017-Aug-16 16:01N 59°20' E 018°05'0 0.2
2017-Aug-16 15:30N 59°20' E 018°05'3 5.1
2017-Aug-16 15:00N 59°19' E 018°10'4 7.1
2017-Aug-16 14:30N 59°22' E 018°15'4 8.2
2017-Aug-16 14:00N 59°24' E 018°21'2 4.1
2017-Aug-16 13:29N 59°26' E 018°24'2 0.8
2017-Aug-16 10:46N 59°25' E 018°28'2 7.3
2017-Aug-16 10:31N 59°26' E 018°24'3 6.3
2017-Aug-16 10:00N 59°23' E 018°20'5 9.5
2017-Aug-16 09:30N 59°20' E 018°13'4 8.5
2017-Aug-16 09:01N 59°20' E 018°05'0 0.1
2017-Aug-16 08:30N 59°20' E 018°05'0 0.0
2017-Aug-16 08:00N 59°20' E 018°05'0 0.0
2017-Aug-16 07:30N 59°20' E 018°05'0 0.0
2017-Aug-16 07:00N 59°20' E 018°05'0 0.0
2017-Aug-16 06:30N 59°20' E 018°05'0 0.0
2017-Aug-16 06:01N 59°20' E 018°05'0 0.0
2017-Aug-16 05:30N 59°20' E 018°05'0 0.0
2017-Aug-16 05:00N 59°20' E 018°05'0 0.0
2017-Aug-16 04:30N 59°20' E 018°05'0 0.0
2017-Aug-16 04:01N 59°20' E 018°05'0 0.0
2017-Aug-16 03:30N 59°20' E 018°05'0 0.0
2017-Aug-16 03:01N 59°20' E 018°05'0 0.0
2017-Aug-16 02:30N 59°20' E 018°05'0 0.0
2017-Aug-16 02:00N 59°20' E 018°05'0 0.0
2017-Aug-16 01:30N 59°20' E 018°05'0 0.0
2017-Aug-16 01:00N 59°20' E 018°05'0 0.0
2017-Aug-16 00:31N 59°20' E 018°05'0 0.0
2017-Aug-16 00:01N 59°20' E 018°05'0 0.0
2017-Aug-15 23:30N 59°20' E 018°05'0 0.0
2017-Aug-15 23:00N 59°20' E 018°05'0 0.0
2017-Aug-15 22:30N 59°20' E 018°05'0 0.0
2017-Aug-15 22:01N 59°20' E 018°05'0 0.0
2017-Aug-15 21:30N 59°20' E 018°05'0 0.0
2017-Aug-15 21:00N 59°20' E 018°05'0 0.0
2017-Aug-15 20:30N 59°20' E 018°05'0 0.0
2017-Aug-15 20:00N 59°20' E 018°05'3 5.2
2017-Aug-15 19:31N 59°19' E 018°10'4 7.2
2017-Aug-15 19:01N 59°22' E 018°15'4 8.1
2017-Aug-15 18:30N 59°24' E 018°21'1 3.0
2017-Aug-15 18:01N 59°23' E 018°24'1 2.1
2017-Aug-15 17:30N 59°24' E 018°22'3 5.1
2017-Aug-15 17:00N 59°22' E 018°18'3 7.0
2017-Aug-15 16:30N 59°20' E 018°13'4 8.4
2017-Aug-15 16:01N 59°20' E 018°05'0 0.1
2017-Aug-15 15:30N 59°20' E 018°05'3 5.8
2017-Aug-15 15:00N 59°20' E 018°10'3 6.9
2017-Aug-15 14:30N 59°22' E 018°15'4 7.7
2017-Aug-15 14:00N 59°24' E 018°21'2 4.2
2017-Aug-15 13:30N 59°26' E 018°24'8 4.2
2017-Aug-15 11:42N 59°23' E 018°38'6 6.7
2017-Aug-15 10:51N 59°25' E 018°28'3 7.2
2017-Aug-15 10:29N 59°26' E 018°23'3 6.0
2017-Aug-15 10:01N 59°23' E 018°20'5 9.5
2017-Aug-15 09:30N 59°20' E 018°13'4 8.5
2017-Aug-15 09:01N 59°20' E 018°05'0 0.0
2017-Aug-15 08:30N 59°20' E 018°05'0 0.0
2017-Aug-15 08:01N 59°20' E 018°05'0 0.0
2017-Aug-15 07:29N 59°20' E 018°05'0 0.0
2017-Aug-15 07:01N 59°20' E 018°05'0 0.0
2017-Aug-15 06:30N 59°20' E 018°05'0 0.0
2017-Aug-15 06:00N 59°20' E 018°05'0 0.0
2017-Aug-15 05:30N 59°20' E 018°05'0 0.0
2017-Aug-15 05:00N 59°20' E 018°05'0 0.0
2017-Aug-15 04:30N 59°20' E 018°05'0 0.0
2017-Aug-15 04:00N 59°20' E 018°05'0 0.0
2017-Aug-15 03:31N 59°20' E 018°05'0 0.0
2017-Aug-15 03:01N 59°20' E 018°05'0 0.0
2017-Aug-15 02:30N 59°20' E 018°05'0 0.0
2017-Aug-15 02:01N 59°20' E 018°05'0 0.0
2017-Aug-15 01:30N 59°20' E 018°05'0 0.0
2017-Aug-15 01:01N 59°20' E 018°05'0 0.0
2017-Aug-15 00:30N 59°20' E 018°05'0 0.0
2017-Aug-15 00:00N 59°20' E 018°05'0 0.0
2017-Aug-14 23:31N 59°20' E 018°05'0 0.0
2017-Aug-14 23:00N 59°20' E 018°05'0 0.0
2017-Aug-14 22:31N 59°20' E 018°05'0 0.0
2017-Aug-14 22:00N 59°20' E 018°05'0 0.0
2017-Aug-14 21:30N 59°20' E 018°05'0 0.0
2017-Aug-14 21:01N 59°20' E 018°05'0 0.0
2017-Aug-14 20:31N 59°20' E 018°05'0 0.0
2017-Aug-14 20:01N 59°20' E 018°05'3 5.2
2017-Aug-14 19:30N 59°19' E 018°10'3 6.4
2017-Aug-14 19:00N 59°21' E 018°14'4 8.9
2017-Aug-14 18:31N 59°24' E 018°21'1 2.9
2017-Aug-14 18:01N 59°23' E 018°24'1 1.6
2017-Aug-14 17:31N 59°24' E 018°22'2 4.6
2017-Aug-14 17:00N 59°23' E 018°19'4 7.4
2017-Aug-14 16:30N 59°20' E 018°13'4 8.5
2017-Aug-14 16:01N 59°20' E 018°05'0 0.1
2017-Aug-14 15:31N 59°20' E 018°05'3 5.3
2017-Aug-14 15:00N 59°19' E 018°10'4 6.9
2017-Aug-14 14:30N 59°22' E 018°15'4 8.2
2017-Aug-14 14:00N 59°24' E 018°21'2 4.5
2017-Aug-14 13:31N 59°26' E 018°25'5 8.2
2017-Aug-14 12:57N 59°24' E 018°33'3 2.1
2017-Aug-14 11:42N 59°23' E 018°38'5 6.0
2017-Aug-14 10:48N 59°25' E 018°28'3 8.6
2017-Aug-14 10:29N 59°26' E 018°23'3 5.7
2017-Aug-14 10:01N 59°23' E 018°20'5 9.7
2017-Aug-14 09:31N 59°20' E 018°13'4 8.4
2017-Aug-14 09:01N 59°20' E 018°05'0 0.0
2017-Aug-14 08:30N 59°20' E 018°05'0 0.0
2017-Aug-14 08:00N 59°20' E 018°05'0 0.0
2017-Aug-14 07:30N 59°20' E 018°05'0 0.0
2017-Aug-14 07:00N 59°20' E 018°05'0 0.0
2017-Aug-14 06:31N 59°20' E 018°05'0 0.0
2017-Aug-14 06:01N 59°20' E 018°05'0 0.0
2017-Aug-14 05:30N 59°20' E 018°05'0 0.0
2017-Aug-14 05:00N 59°20' E 018°05'0 0.0
2017-Aug-14 04:30N 59°20' E 018°05'0 0.0
2017-Aug-14 04:01N 59°20' E 018°05'0 0.0
2017-Aug-14 03:30N 59°20' E 018°05'0 0.0
2017-Aug-14 03:00N 59°20' E 018°05'0 0.0
2017-Aug-14 02:30N 59°20' E 018°05'0 0.0
2017-Aug-14 02:01N 59°20' E 018°05'0 0.0
2017-Aug-14 01:31N 59°20' E 018°05'0 0.0
2017-Aug-14 01:00N 59°20' E 018°05'0 0.0
2017-Aug-14 00:30N 59°20' E 018°05'0 0.0
2017-Aug-14 00:00N 59°20' E 018°05'0 0.0
2017-Aug-13 23:31N 59°20' E 018°05'0 0.0
2017-Aug-13 23:01N 59°20' E 018°05'0 0.0
2017-Aug-13 22:30N 59°20' E 018°05'0 0.0
2017-Aug-13 22:00N 59°20' E 018°05'0 0.0
2017-Aug-13 21:31N 59°20' E 018°05'0 0.0
2017-Aug-13 21:00N 59°20' E 018°05'0 0.0
2017-Aug-13 20:30N 59°20' E 018°05'0 0.0
2017-Aug-13 20:00N 59°20' E 018°05'0 0.0
2017-Aug-13 19:30N 59°20' E 018°05'0 0.0
2017-Aug-13 19:01N 59°20' E 018°05'0 0.0
2017-Aug-13 18:30N 59°20' E 018°05'0 0.0
2017-Aug-13 18:00N 59°20' E 018°05'2 3.9
2017-Aug-13 17:31N 59°19' E 018°08'4 8.0
2017-Aug-13 17:01N 59°22' E 018°15'4 8.3
2017-Aug-13 16:30N 59°24' E 018°21'3 5.4
2017-Aug-13 16:00N 59°26' E 018°26'1 0.2
2017-Aug-13 10:18N 59°25' E 018°28'3 9.9
2017-Aug-13 10:00N 59°26' E 018°22'3 6.3
2017-Aug-13 09:31N 59°23' E 018°19'4 8.2
2017-Aug-13 09:00N 59°20' E 018°13'4 8.4
2017-Aug-13 08:31N 59°20' E 018°05'0 0.1
2017-Aug-13 08:00N 59°20' E 018°05'0 0.0
2017-Aug-13 07:30N 59°20' E 018°05'0 0.0
2017-Aug-13 07:01N 59°20' E 018°05'0 0.0
2017-Aug-13 06:31N 59°20' E 018°05'0 0.0
2017-Aug-13 06:00N 59°20' E 018°05'0 0.0
2017-Aug-13 05:31N 59°20' E 018°05'0 0.0
2017-Aug-13 05:01N 59°20' E 018°05'0 0.0
2017-Aug-13 04:30N 59°20' E 018°05'0 0.0
2017-Aug-13 04:01N 59°20' E 018°05'0 0.0
2017-Aug-13 03:31N 59°20' E 018°05'0 0.0
2017-Aug-13 03:00N 59°20' E 018°05'0 0.0
2017-Aug-13 02:31N 59°20' E 018°05'0 0.0
2017-Aug-13 02:01N 59°20' E 018°05'0 0.0
2017-Aug-13 01:31N 59°20' E 018°05'0 0.0
2017-Aug-13 01:01N 59°20' E 018°05'0 0.0
2017-Aug-13 00:31N 59°20' E 018°05'0 0.0
2017-Aug-13 00:01N 59°20' E 018°05'0 0.0
2017-Aug-12 23:31N 59°20' E 018°05'0 0.0
2017-Aug-12 23:00N 59°20' E 018°05'0 0.0
2017-Aug-12 22:31N 59°20' E 018°05'0 0.0
2017-Aug-12 22:01N 59°20' E 018°05'0 0.0
2017-Aug-12 21:31N 59°20' E 018°05'0 0.0
2017-Aug-12 21:01N 59°20' E 018°05'0 0.0
2017-Aug-12 20:30N 59°20' E 018°05'0 0.0
2017-Aug-12 20:01N 59°20' E 018°05'0 0.0
2017-Aug-12 19:31N 59°20' E 018°05'0 0.0
2017-Aug-12 19:01N 59°20' E 018°05'0 0.0
2017-Aug-12 18:31N 59°20' E 018°05'0 0.0
2017-Aug-12 18:01N 59°20' E 018°05'2 3.1
2017-Aug-12 17:30N 59°19' E 018°07'4 8.7
2017-Aug-12 17:00N 59°21' E 018°15'4 8.8
2017-Aug-12 16:31N 59°24' E 018°21'3 5.4
2017-Aug-12 15:59N 59°26' E 018°26'4 8.2
2017-Aug-12 15:30N 59°24' E 018°34'5 9.4
2017-Aug-12 15:00N 59°22' E 018°42'4 8.4
2017-Aug-12 14:30N 59°19' E 018°48'4 8.4
2017-Aug-12 14:00N 59°17' E 018°55'0 0.0
2017-Aug-12 13:30N 59°17' E 018°55'0 0.0
2017-Aug-12 13:00N 59°17' E 018°55'0 0.0
2017-Aug-12 12:30N 59°17' E 018°55'1 2.5
2017-Aug-12 12:00N 59°18' E 018°53'5 9.7
2017-Aug-12 11:31N 59°21' E 018°46'4 7.1
2017-Aug-12 10:53N 59°23' E 018°38'410.0
2017-Aug-12 10:29N 59°25' E 018°31'5 9.7
2017-Aug-12 10:00N 59°25' E 018°22'3 6.2
2017-Aug-12 09:30N 59°23' E 018°19'4 8.2
2017-Aug-12 09:00N 59°20' E 018°12'4 8.2
2017-Aug-12 08:30N 59°20' E 018°05'0 0.0
2017-Aug-12 08:01N 59°20' E 018°05'0 0.0
2017-Aug-12 07:31N 59°20' E 018°05'0 0.0
2017-Aug-12 07:01N 59°20' E 018°05'0 0.0
2017-Aug-12 06:30N 59°20' E 018°05'0 0.0
2017-Aug-12 06:01N 59°20' E 018°05'0 0.0
2017-Aug-12 05:31N 59°20' E 018°05'0 0.0
2017-Aug-12 05:01N 59°20' E 018°05'0 0.0
2017-Aug-12 04:31N 59°20' E 018°05'0 0.0
2017-Aug-12 04:01N 59°20' E 018°05'0 0.0
2017-Aug-12 03:31N 59°20' E 018°05'0 0.0
2017-Aug-12 03:01N 59°20' E 018°05'0 0.0
2017-Aug-12 02:31N 59°20' E 018°05'0 0.0
2017-Aug-12 02:01N 59°20' E 018°05'0 0.0
2017-Aug-12 01:31N 59°20' E 018°05'0 0.0
2017-Aug-12 01:00N 59°20' E 018°05'0 0.0
2017-Aug-12 00:31N 59°20' E 018°05'0 0.0
2017-Aug-12 00:01N 59°20' E 018°05'0 0.0
2017-Aug-11 23:31N 59°20' E 018°05'0 0.0
2017-Aug-11 23:00N 59°20' E 018°05'0 0.0
2017-Aug-11 22:30N 59°20' E 018°05'0 0.0
2017-Aug-11 22:00N 59°20' E 018°05'0 0.0
2017-Aug-11 21:31N 59°20' E 018°05'0 0.0
2017-Aug-11 21:01N 59°20' E 018°05'0 0.0
2017-Aug-11 20:31N 59°20' E 018°05'1 2.5
2017-Aug-11 20:00N 59°19' E 018°07'5 9.0
2017-Aug-11 19:30N 59°21' E 018°14'4 8.9
2017-Aug-11 19:01N 59°24' E 018°21'2 3.4
2017-Aug-11 18:30N 59°23' E 018°24'2 4.1
2017-Aug-11 18:00N 59°23' E 018°20'3 6.3
2017-Aug-11 17:30N 59°22' E 018°15'3 6.4
2017-Aug-11 17:00N 59°19' E 018°11'3 6.1
2017-Aug-11 16:31N 59°20' E 018°05'4 7.1
2017-Aug-11 16:00N 59°20' E 018°12'2 4.7
2017-Aug-11 15:30N 59°22' E 018°15'4 8.1
2017-Aug-11 15:00N 59°24' E 018°21'1 3.0
2017-Aug-11 14:30N 59°25' E 018°22'9 3.5
2017-Aug-11 12:01N 59°23' E 018°38'010.7
2017-Aug-11 12:00N 59°23' E 018°38'6 5.3
2017-Aug-11 10:56N 59°26' E 018°28'3 6.9
2017-Aug-11 10:30N 59°25' E 018°22'3 5.2
2017-Aug-11 10:00N 59°23' E 018°20'5 9.7
2017-Aug-11 09:30N 59°20' E 018°12'4 8.0
2017-Aug-11 09:00N 59°20' E 018°05'0 0.0
2017-Aug-11 08:31N 59°20' E 018°05'0 0.0
2017-Aug-11 08:00N 59°20' E 018°05'0 0.0
2017-Aug-11 07:30N 59°20' E 018°05'0 0.0
2017-Aug-11 07:00N 59°20' E 018°05'0 0.0
2017-Aug-11 06:30N 59°20' E 018°05'0 0.0
2017-Aug-11 06:00N 59°20' E 018°05'0 0.0
2017-Aug-11 05:30N 59°20' E 018°05'0 0.0
2017-Aug-11 05:00N 59°20' E 018°05'0 0.0
2017-Aug-11 04:30N 59°20' E 018°05'0 0.0
2017-Aug-11 04:00N 59°20' E 018°05'0 0.0
2017-Aug-11 03:30N 59°20' E 018°05'0 0.0
2017-Aug-11 03:00N 59°20' E 018°05'0 0.0
2017-Aug-11 02:30N 59°20' E 018°05'0 0.0
2017-Aug-11 02:00N 59°20' E 018°05'0 0.0
2017-Aug-11 01:30N 59°20' E 018°05'0 0.0
2017-Aug-11 01:00N 59°20' E 018°05'0 0.0
2017-Aug-11 00:30N 59°20' E 018°05'0 0.0
2017-Aug-11 00:00N 59°20' E 018°05'0 0.0
2017-Aug-10 23:30N 59°20' E 018°05'0 0.0
2017-Aug-10 23:00N 59°20' E 018°05'0 0.0
2017-Aug-10 22:30N 59°20' E 018°05'0 0.0
2017-Aug-10 22:00N 59°20' E 018°05'0 0.0
2017-Aug-10 21:30N 59°20' E 018°05'0 0.0
2017-Aug-10 21:00N 59°20' E 018°05'0 0.0
2017-Aug-10 20:30N 59°20' E 018°05'0 0.0
2017-Aug-10 20:01N 59°20' E 018°05'4 8.0
2017-Aug-10 19:30N 59°20' E 018°12'3 5.8
2017-Aug-10 19:00N 59°22' E 018°17'3 6.2
2017-Aug-10 18:30N 59°24' E 018°21'1 1.9
2017-Aug-10 17:44N 59°23' E 018°24'1 4.9
2017-Aug-10 17:30N 59°24' E 018°22'2 4.1
2017-Aug-10 17:01N 59°23' E 018°19'4 7.5
2017-Aug-10 16:30N 59°20' E 018°13'4 8.6
2017-Aug-10 16:01N 59°20' E 018°05'0 0.1
2017-Aug-10 15:30N 59°20' E 018°05'4 7.6
2017-Aug-10 15:00N 59°20' E 018°12'3 5.7
2017-Aug-10 14:30N 59°22' E 018°16'3 6.8
2017-Aug-10 14:00N 59°24' E 018°21'4 1.2
2017-Aug-10 10:56N 59°25' E 018°28'3 7.0
2017-Aug-10 10:30N 59°25' E 018°22'3 5.5
2017-Aug-10 10:01N 59°23' E 018°20'5 9.6
2017-Aug-10 09:30N 59°20' E 018°12'4 8.0
2017-Aug-10 09:01N 59°20' E 018°05'0 0.0
2017-Aug-10 08:30N 59°20' E 018°05'0 0.0
2017-Aug-10 08:00N 59°20' E 018°05'0 0.0
2017-Aug-10 07:30N 59°20' E 018°05'0 0.0
2017-Aug-10 07:00N 59°20' E 018°05'0 0.0
2017-Aug-10 06:30N 59°20' E 018°05'0 0.0
2017-Aug-10 06:00N 59°20' E 018°05'0 0.0
2017-Aug-10 05:30N 59°20' E 018°05'0 0.0
2017-Aug-10 05:00N 59°20' E 018°05'0 0.0
2017-Aug-10 04:30N 59°20' E 018°05'0 0.0
2017-Aug-10 04:00N 59°20' E 018°05'0 0.0
2017-Aug-10 03:30N 59°20' E 018°05'0 0.0
2017-Aug-10 03:00N 59°20' E 018°05'0 0.0
2017-Aug-10 02:30N 59°20' E 018°05'0 0.0
2017-Aug-10 02:00N 59°20' E 018°05'0 0.0
2017-Aug-10 01:30N 59°20' E 018°05'0 0.0
2017-Aug-10 01:00N 59°20' E 018°05'0 0.0
2017-Aug-10 00:30N 59°20' E 018°05'0 0.0
2017-Aug-10 00:00N 59°20' E 018°05'0 0.0
2017-Aug-09 23:30N 59°20' E 018°05'0 0.0
2017-Aug-09 23:00N 59°20' E 018°05'0 0.0
2017-Aug-09 22:30N 59°20' E 018°05'0 0.0
2017-Aug-09 22:00N 59°20' E 018°05'0 0.0
2017-Aug-09 21:30N 59°20' E 018°05'0 0.0
2017-Aug-09 21:00N 59°20' E 018°05'0 0.0
2017-Aug-09 20:30N 59°20' E 018°05'0 0.0
2017-Aug-09 20:00N 59°20' E 018°05'2 4.1
2017-Aug-09 19:30N 59°19' E 018°09'4 8.7
2017-Aug-09 19:00N 59°22' E 018°15'4 7.7
2017-Aug-09 18:31N 59°24' E 018°21'1 1.8
2017-Aug-09 17:43N 59°23' E 018°24'1 4.7
2017-Aug-09 17:31N 59°24' E 018°22'2 4.5
2017-Aug-09 17:00N 59°23' E 018°18'4 7.9
2017-Aug-09 16:30N 59°20' E 018°12'4 8.1
2017-Aug-09 16:00N 59°20' E 018°05'0 0.1
2017-Aug-09 15:30N 59°20' E 018°05'3 6.5
2017-Aug-09 15:00N 59°20' E 018°11'3 6.5
2017-Aug-09 14:30N 59°22' E 018°16'4 7.0
2017-Aug-09 13:59N 59°24' E 018°21'2 4.7
2017-Aug-09 13:30N 59°26' E 018°25'5 8.7
2017-Aug-09 12:57N 59°24' E 018°34'2 5.5
2017-Aug-09 12:30N 59°23' E 018°38'0 0.3
2017-Aug-09 12:00N 59°23' E 018°38'2 3.2
2017-Aug-09 11:30N 59°23' E 018°35'3 6.8
2017-Aug-09 11:00N 59°25' E 018°29'4 7.2
2017-Aug-09 10:31N 59°26' E 018°22'3 5.6
2017-Aug-09 10:00N 59°23' E 018°20'5 9.5
2017-Aug-09 09:30N 59°20' E 018°13'4 8.3
2017-Aug-09 09:01N 59°20' E 018°05'0 0.1
2017-Aug-09 08:30N 59°20' E 018°05'0 0.0
2017-Aug-09 08:00N 59°20' E 018°05'0 0.0
2017-Aug-09 07:30N 59°20' E 018°05'0 0.0
2017-Aug-09 07:00N 59°20' E 018°05'0 0.0
2017-Aug-09 06:30N 59°20' E 018°05'0 0.0
2017-Aug-09 06:00N 59°20' E 018°05'0 0.0
2017-Aug-09 05:30N 59°20' E 018°05'0 0.0
2017-Aug-09 05:00N 59°20' E 018°05'0 0.0
2017-Aug-09 04:30N 59°20' E 018°05'0 0.0
2017-Aug-09 04:00N 59°20' E 018°05'0 0.0
2017-Aug-09 03:30N 59°20' E 018°05'  

Dump ship's entire track history